Time;durP1;ratioP1;P1;durP2;ratioP2;P2;SDS_P1;SDS_P2;PMS_P1;PMS_P2;Temp;Humidity;BMP_temperature;BMP_pressure;BME280_temperature;BME280_humidity;BME280_pressure;Samples;Min_cycle;Max_cycle;Signal;HPM_P1;HPM_P2
2021/07/29 00:01:12;;;;;;;8.98;4.28;;;15.60;99.40;;;;;;5107435;27;20067;-76
2021/07/29 00:03:44;;;;;;;8.30;4.65;;;15.60;99.40;;;;;;5106432;27;20039;-74
2021/07/29 00:06:15;;;;;;;11.05;4.60;;;15.60;99.40;;;;;;5109343;27;20039;-75
2021/07/29 00:08:41;;;;;;;12.18;4.85;;;15.50;99.40;;;;;;5108295;27;20044;-75
2021/07/29 00:11:08;;;;;;;11.00;4.97;;;15.50;99.40;;;;;;5109194;27;20059;-75
2021/07/29 00:13:34;;;;;;;7.38;4.10;;;15.50;99.30;;;;;;5080735;27;20045;-74
2021/07/29 00:16:02;;;;;;;9.02;4.57;;;15.50;99.40;;;;;;5064686;27;20039;-75
2021/07/29 00:19:13;;;;;;;7.28;4.05;;;15.50;99.40;;;;;;5091786;27;20031;-75
2021/07/29 00:21:20;;;;;;;6.75;4.40;;;15.50;99.40;;;;;;5104349;27;20119;-75
2021/07/29 00:23:48;;;;;;;5.95;3.95;;;15.50;99.30;;;;;;5079817;27;20039;-74
2021/07/29 00:26:14;;;;;;;8.93;4.55;;;15.50;99.30;;;;;;5108597;27;20047;-75
2021/07/29 00:28:40;;;;;;;6.95;4.07;;;15.40;99.30;;;;;;5109366;27;20134;-75
2021/07/29 00:31:06;;;;;;;6.88;4.18;;;15.40;99.40;;;;;;5093097;27;20153;-75
2021/07/29 00:33:32;;;;;;;6.25;3.60;;;15.40;99.40;;;;;;5057980;27;20055;-76
2021/07/29 00:35:58;;;;;;;8.77;3.92;;;15.40;99.50;;;;;;5077183;27;20502;-75
2021/07/29 00:38:24;;;;;;;10.13;4.07;;;15.40;99.40;;;;;;5113796;27;20038;-76
2021/07/29 00:40:50;;;;;;;6.72;3.80;;;15.40;99.40;;;;;;5106305;27;20485;-76
2021/07/29 00:43:16;;;;;;;7.18;4.00;;;15.30;99.40;;;;;;5087135;27;20035;-75
2021/07/29 00:45:45;;;;;;;6.88;4.28;;;15.30;99.40;;;;;;5076634;27;20566;-76
2021/07/29 00:48:15;;;;;;;11.07;4.53;;;15.40;99.50;;;;;;5093582;27;20049;-76
2021/07/29 00:50:41;;;;;;;11.07;4.80;;;15.40;99.50;;;;;;5108052;27;20450;-76
2021/07/29 00:53:08;;;;;;;8.30;3.65;;;15.30;99.50;;;;;;5127875;27;20766;-75
2021/07/29 00:55:35;;;;;;;6.75;3.97;;;15.30;99.50;;;;;;5108225;27;20098;-75
2021/07/29 00:58:01;;;;;;;7.78;3.75;;;15.30;99.60;;;;;;5133304;27;20423;-76
2021/07/29 01:00:27;;;;;;;9.35;4.07;;;15.30;99.60;;;;;;5125144;27;20043;-77
2021/07/29 01:02:53;;;;;;;6.93;4.07;;;15.30;99.60;;;;;;5110637;27;20439;-75
2021/07/29 01:05:21;;;;;;;8.82;4.38;;;15.30;99.60;;;;;;5091510;27;20039;-75
2021/07/29 01:07:48;;;;;;;9.10;4.40;;;15.30;99.70;;;;;;5097193;27;20062;-75
2021/07/29 01:10:17;;;;;;;7.35;3.40;;;15.30;99.70;;;;;;5128108;27;20042;-77
2021/07/29 01:12:43;;;;;;;8.38;4.20;;;15.40;99.80;;;;;;5087399;27;20125;-75
2021/07/29 01:15:09;;;;;;;9.50;4.53;;;15.40;99.80;;;;;;5090405;27;20051;-76
2021/07/29 01:17:35;;;;;;;10.02;4.68;;;15.40;99.70;;;;;;5103282;27;20094;-76
2021/07/29 01:20:01;;;;;;;6.93;3.80;;;15.40;99.70;;;;;;5072323;27;20438;-76
2021/07/29 01:22:35;;;;;;;7.47;3.90;;;15.40;99.60;;;;;;5103915;27;20495;-75
2021/07/29 01:25:02;;;;;;;7.82;3.75;;;15.50;99.50;;;;;;5114361;27;20035;-75
2021/07/29 01:27:32;;;;;;;8.07;3.92;;;15.50;99.50;;;;;;5132212;27;20038;-74
2021/07/29 01:30:00;;;;;;;9.82;4.03;;;15.50;99.40;;;;;;5097006;27;20027;-75
2021/07/29 01:32:28;;;;;;;9.38;3.85;;;15.50;99.40;;;;;;5108643;27;20039;-75
2021/07/29 01:34:56;;;;;;;8.55;4.10;;;15.40;99.40;;;;;;5107456;27;21310;-76
2021/07/29 01:37:22;;;;;;;9.23;3.90;;;15.40;99.40;;;;;;5089314;27;20059;-75
2021/07/29 01:39:48;;;;;;;10.13;4.40;;;15.30;99.40;;;;;;5107249;27;20421;-73
2021/07/29 01:42:17;;;;;;;8.73;4.10;;;15.30;99.50;;;;;;5089447;27;20055;-76
2021/07/29 01:44:43;;;;;;;8.48;4.28;;;15.30;99.70;;;;;;5081566;27;20088;-75
2021/07/29 01:47:09;;;;;;;7.13;4.07;;;15.20;99.70;;;;;;5083497;27;20363;-75
2021/07/29 01:49:35;;;;;;;7.65;4.35;;;15.20;99.80;;;;;;5113052;27;20039;-75
2021/07/29 01:52:01;;;;;;;7.25;4.18;;;15.20;99.80;;;;;;5109234;27;20031;-75
2021/07/29 01:54:27;;;;;;;7.25;4.60;;;15.10;99.80;;;;;;5121156;27;20068;-75
2021/07/29 01:56:53;;;;;;;9.00;4.40;;;15.10;99.90;;;;;;5114175;27;20041;-75
2021/07/29 01:59:18;;;;;;;7.75;3.92;;;15.10;99.90;;;;;;5083230;27;20050;-75
2021/07/29 02:01:44;;;;;;;9.60;4.30;;;15.10;99.90;;;;;;5092801;27;20532;-74
2021/07/29 02:04:11;;;;;;;7.93;4.10;;;15.10;99.90;;;;;;5089365;27;20486;-75
2021/07/29 02:06:37;;;;;;;6.97;4.07;;;15.10;99.90;;;;;;5095441;27;20050;-76
2021/07/29 02:09:06;;;;;;;9.35;3.95;;;15.10;99.90;;;;;;5092581;27;20038;-75
2021/07/29 02:11:34;;;;;;;8.02;3.72;;;15.10;99.90;;;;;;5112592;27;20047;-76
2021/07/29 02:14:01;;;;;;;7.35;3.80;;;15.10;99.90;;;;;;5094238;27;20111;-75
2021/07/29 02:16:28;;;;;;;7.40;3.88;;;15.10;99.90;;;;;;5131285;27;20093;-76
2021/07/29 02:18:54;;;;;;;9.43;3.55;;;15.10;99.90;;;;;;5106965;27;20042;-75
2021/07/29 02:21:23;;;;;;;7.05;3.05;;;15.10;99.90;;;;;;5111075;27;20397;-74
2021/07/29 02:23:48;;;;;;;5.80;2.60;;;15.20;99.50;;;;;;5095886;27;20393;-74
2021/07/29 02:26:18;;;;;;;7.18;1.90;;;15.10;99.30;;;;;;5077940;27;20038;-75
2021/07/29 02:28:44;;;;;;;3.80;1.37;;;15.00;98.90;;;;;;5086157;27;20040;-74
2021/07/29 02:31:11;;;;;;;2.25;0.65;;;14.90;98.20;;;;;;5090690;27;20043;-76
2021/07/29 02:33:37;;;;;;;2.65;0.88;;;14.80;97.60;;;;;;5070071;27;20027;-74
2021/07/29 02:36:03;;;;;;;1.42;0.70;;;14.60;97.70;;;;;;5078260;27;20114;-74
2021/07/29 02:38:33;;;;;;;4.03;0.50;;;14.50;97.60;;;;;;5112992;27;20036;-75
2021/07/29 02:40:59;;;;;;;1.77;0.57;;;14.30;97.30;;;;;;5092582;27;20039;-76
2021/07/29 02:43:25;;;;;;;2.00;0.73;;;14.20;97.40;;;;;;5111756;27;20510;-76
2021/07/29 02:45:51;;;;;;;1.90;0.70;;;14.00;97.80;;;;;;5122990;27;20031;-76
2021/07/29 02:48:17;;;;;;;4.15;0.60;;;13.90;98.30;;;;;;5112085;27;20042;-78
2021/07/29 02:50:43;;;;;;;2.00;0.80;;;13.70;98.80;;;;;;5092775;27;20035;-77
2021/07/29 02:53:12;;;;;;;1.85;0.70;;;13.50;99.10;;;;;;5075997;27;20040;-77
2021/07/29 02:55:38;;;;;;;7.03;0.63;;;13.40;99.60;;;;;;5107792;27;20039;-75
2021/07/29 02:58:04;;;;;;;2.92;0.63;;;13.40;99.90;;;;;;5092197;27;20046;-75
2021/07/29 03:00:30;;;;;;;1.92;0.57;;;13.20;99.90;;;;;;5071704;27;20039;-75
2021/07/29 03:02:55;;;;;;;2.63;0.70;;;13.20;99.90;;;;;;5129912;27;20039;-76
2021/07/29 03:05:22;;;;;;;3.10;0.70;;;13.10;99.90;;;;;;5091114;28;20578;-77
2021/07/29 03:07:48;;;;;;;2.13;0.75;;;13.10;99.90;;;;;;5094464;27;20059;-76
2021/07/29 03:10:14;;;;;;;1.77;0.60;;;13.00;99.90;;;;;;5110387;27;20084;-76
2021/07/29 03:12:40;;;;;;;2.85;0.50;;;13.00;99.90;;;;;;5108961;27;20509;-76
2021/07/29 03:15:07;;;;;;;1.73;0.68;;;13.00;99.90;;;;;;5105239;27;20039;-75
2021/07/29 03:17:33;;;;;;;2.17;0.75;;;13.00;99.90;;;;;;5128956;27;20362;-76
2021/07/29 03:19:59;;;;;;;1.83;0.70;;;13.00;99.90;;;;;;5093528;27;20400;-76
2021/07/29 03:22:24;;;;;;;2.58;1.10;;;13.00;99.90;;;;;;5092163;27;20121;-75
2021/07/29 03:24:51;;;;;;;1.92;0.80;;;13.00;99.90;;;;;;5104166;27;20045;-76
2021/07/29 03:27:16;;;;;;;2.55;0.77;;;13.00;99.90;;;;;;5078927;27;20051;-75
2021/07/29 03:29:42;;;;;;;2.05;1.08;;;12.90;99.90;;;;;;5098014;27;20092;-76
2021/07/29 03:32:08;;;;;;;7.25;1.50;;;13.00;99.90;;;;;;5133722;27;20035;-75
2021/07/29 03:34:34;;;;;;;5.07;1.55;;;13.00;99.90;;;;;;5112081;27;20393;-76
2021/07/29 03:37:01;;;;;;;2.80;1.45;;;13.00;99.90;;;;;;5112929;27;20039;-75
2021/07/29 03:39:27;;;;;;;2.63;1.50;;;13.00;99.90;;;;;;5074159;27;20085;-76
2021/07/29 03:41:54;;;;;;;6.82;2.10;;;13.00;99.90;;;;;;5103316;27;20545;-75
2021/07/29 03:44:21;;;;;;;5.53;1.75;;;13.00;99.90;;;;;;5116246;27;20477;-75
2021/07/29 03:46:47;;;;;;;4.88;2.00;;;13.00;99.90;;;;;;5101475;27;20053;-77
2021/07/29 03:49:13;;;;;;;5.55;2.45;;;13.00;99.90;;;;;;5119548;27;20656;-78
2021/07/29 03:51:39;;;;;;;6.10;2.30;;;13.00;99.90;;;;;;5094778;27;20043;-77
2021/07/29 03:54:05;;;;;;;6.90;2.05;;;13.00;99.90;;;;;;5093736;27;20409;-77
2021/07/29 03:56:31;;;;;;;3.90;2.47;;;13.00;99.90;;;;;;5113523;27;20039;-76
2021/07/29 03:58:56;;;;;;;5.47;2.30;;;13.00;99.90;;;;;;5098029;27;20375;-77
2021/07/29 04:01:22;;;;;;;7.15;2.88;;;13.10;99.90;;;;;;5096344;27;20047;-75
2021/07/29 04:03:48;;;;;;;4.10;2.25;;;13.00;99.90;;;;;;5079237;27;20047;-75
2021/07/29 04:06:18;;;;;;;7.57;2.30;;;13.10;99.90;;;;;;5113204;27;20083;-75
2021/07/29 04:08:44;;;;;;;8.07;2.92;;;13.10;99.90;;;;;;5095382;27;20050;-75
2021/07/29 04:11:09;;;;;;;8.20;3.00;;;13.10;99.90;;;;;;5128231;27;20051;-76
2021/07/29 04:13:39;;;;;;;7.00;2.90;;;13.10;99.90;;;;;;5095120;27;20126;-75
2021/07/29 04:16:05;;;;;;;9.20;3.28;;;13.10;99.90;;;;;;5097192;27;20155;-76
2021/07/29 04:18:32;;;;;;;8.15;3.58;;;13.10;99.90;;;;;;5122221;27;20392;-75
2021/07/29 04:20:59;;;;;;;11.65;3.55;;;13.10;99.90;;;;;;5077994;27;20127;-75
2021/07/29 04:23:25;;;;;;;6.88;3.03;;;13.20;99.90;;;;;;5114042;27;20065;-76
2021/07/29 04:25:51;;;;;;;7.15;3.58;;;13.20;99.90;;;;;;5111794;27;20519;-75
2021/07/29 04:28:17;;;;;;;8.02;3.33;;;13.20;99.90;;;;;;5083961;27;20134;-76
2021/07/29 04:30:43;;;;;;;7.50;3.17;;;13.20;99.90;;;;;;5097183;27;20122;-75
2021/07/29 04:33:10;;;;;;;7.40;3.50;;;13.30;99.90;;;;;;5126942;27;20062;-77
2021/07/29 04:35:41;;;;;;;10.43;3.58;;;13.50;99.90;;;;;;5130652;27;20039;-74
2021/07/29 04:38:07;;;;;;;9.05;3.35;;;13.50;99.90;;;;;;5110380;27;20070;-77
2021/07/29 04:40:33;;;;;;;10.00;3.00;;;13.60;99.90;;;;;;5102949;27;20121;-76
2021/07/29 04:42:59;;;;;;;8.20;3.40;;;13.60;99.90;;;;;;5105462;27;20451;-75
2021/07/29 04:45:25;;;;;;;10.32;3.35;;;13.70;99.90;;;;;;5094080;27;20063;-75
2021/07/29 04:47:51;;;;;;;9.00;3.63;;;13.70;99.90;;;;;;5127190;27;20046;-77
2021/07/29 04:50:17;;;;;;;10.02;3.90;;;13.70;99.90;;;;;;5112357;27;20043;-75
2021/07/29 04:52:43;;;;;;;8.98;4.10;;;13.70;99.90;;;;;;5117968;27;20512;-76
2021/07/29 04:55:10;;;;;;;9.25;4.05;;;13.70;99.90;;;;;;5093607;27;20035;-76
2021/07/29 04:57:35;;;;;;;13.00;3.97;;;13.70;99.90;;;;;;5079942;27;20056;-76
2021/07/29 05:00:02;;;;;;;12.93;4.13;;;13.70;99.90;;;;;;5087400;27;20043;-76
2021/07/29 05:02:29;;;;;;;11.00;4.07;;;13.70;99.90;;;;;;5124232;27;20043;-76
2021/07/29 05:04:55;;;;;;;9.05;3.67;;;13.70;99.90;;;;;;5089519;27;20058;-77
2021/07/29 05:07:21;;;;;;;11.02;3.97;;;13.80;99.90;;;;;;5125127;27;20035;-76
2021/07/29 05:09:48;;;;;;;10.30;3.92;;;13.80;99.90;;;;;;5111285;27;20150;-76
2021/07/29 05:12:13;;;;;;;7.85;3.65;;;13.90;99.90;;;;;;5120909;27;20138;-78
2021/07/29 05:14:41;;;;;;;11.55;3.67;;;13.90;99.90;;;;;;5124502;27;20045;-76
2021/07/29 05:17:23;;;;;;;9.35;3.40;;;13.90;99.90;;;;;;5109863;27;20532;-75
2021/07/29 05:19:49;;;;;;;9.77;4.05;;;14.00;99.90;;;;;;5098647;27;20123;-76
2021/07/29 05:22:15;;;;;;;8.65;3.50;;;14.10;99.90;;;;;;5089664;27;20162;-76
2021/07/29 05:24:41;;;;;;;10.75;3.50;;;14.10;99.90;;;;;;5095078;27;20548;-77
2021/07/29 05:27:07;;;;;;;7.60;3.70;;;14.10;99.90;;;;;;5096271;27;20566;-76
2021/07/29 05:29:35;;;;;;;8.68;3.45;;;14.20;99.90;;;;;;5128155;27;20043;-76
2021/07/29 05:32:01;;;;;;;8.13;3.40;;;14.20;99.90;;;;;;5074994;27;20506;-76
2021/07/29 05:34:28;;;;;;;8.43;3.42;;;14.20;99.90;;;;;;5090210;27;20096;-77
2021/07/29 05:36:54;;;;;;;12.93;3.33;;;14.30;99.90;;;;;;5095629;27;20039;-76
2021/07/29 05:39:22;;;;;;;12.60;3.13;;;14.40;99.90;;;;;;5074053;27;20417;-76
2021/07/29 05:41:48;;;;;;;9.20;3.30;;;14.40;99.90;;;;;;5056312;27;20040;-76
2021/07/29 05:44:14;;;;;;;8.63;2.92;;;14.40;99.90;;;;;;5089747;27;20961;-75
2021/07/29 05:46:40;;;;;;;8.68;3.08;;;14.50;99.90;;;;;;5061175;27;20062;-76
2021/07/29 05:49:06;;;;;;;10.52;3.08;;;14.50;99.90;;;;;;5109756;27;20035;-77
2021/07/29 05:51:32;;;;;;;12.20;3.13;;;14.60;99.90;;;;;;5092150;27;20035;-76
2021/07/29 05:53:58;;;;;;;9.15;2.80;;;14.60;99.90;;;;;;5094660;27;20509;-73
2021/07/29 05:56:24;;;;;;;9.93;3.00;;;14.70;99.90;;;;;;5112868;27;20059;-77
2021/07/29 05:58:50;;;;;;;8.32;2.95;;;14.70;99.90;;;;;;5111550;27;20031;-76
2021/07/29 06:01:16;;;;;;;8.18;2.90;;;14.80;99.90;;;;;;5096183;27;20066;-76
2021/07/29 06:03:42;;;;;;;10.55;3.30;;;14.80;99.90;;;;;;5108666;27;20132;-76
2021/07/29 06:06:08;;;;;;;9.07;2.95;;;14.90;99.90;;;;;;5110155;27;20046;-75
2021/07/29 06:08:38;;;;;;;9.88;3.13;;;14.90;99.90;;;;;;5071462;27;20051;-75
2021/07/29 06:11:04;;;;;;;7.93;2.75;;;15.00;99.90;;;;;;5081275;27;20046;-74
2021/07/29 06:13:31;;;;;;;13.98;3.13;;;15.00;99.90;;;;;;5128275;27;20079;-75
2021/07/29 06:16:08;;;;;;;7.80;2.85;;;15.10;99.90;;;;;;5110867;27;20501;-75
2021/07/29 06:18:37;;;;;;;12.23;3.53;;;15.10;99.90;;;;;;5079889;27;20444;-75
2021/07/29 06:21:04;;;;;;;8.70;2.80;;;15.20;99.90;;;;;;5101316;27;20390;-75
2021/07/29 06:23:30;;;;;;;8.45;3.05;;;15.20;99.90;;;;;;5090583;27;20035;-74
2021/07/29 06:25:56;;;;;;;7.55;2.78;;;15.30;99.90;;;;;;5106506;27;20054;-75
2021/07/29 06:28:22;;;;;;;8.13;3.00;;;15.40;99.90;;;;;;5107337;27;20035;-75
2021/07/29 06:30:48;;;;;;;8.85;2.47;;;15.40;99.90;;;;;;5116961;27;20039;-75
2021/07/29 06:33:14;;;;;;;13.65;2.90;;;15.50;99.90;;;;;;5107698;27;20037;-75
2021/07/29 06:35:40;;;;;;;10.07;2.75;;;15.50;99.90;;;;;;5113403;27;20450;-76
2021/07/29 06:38:06;;;;;;;10.48;3.22;;;15.60;99.90;;;;;;5110802;27;20031;-76
2021/07/29 06:40:32;;;;;;;8.23;3.45;;;15.70;99.90;;;;;;5110700;27;20061;-74
2021/07/29 06:42:58;;;;;;;11.10;3.72;;;15.70;99.90;;;;;;5077372;27;20059;-75
2021/07/29 06:45:24;;;;;;;8.63;3.13;;;15.80;99.90;;;;;;5113304;27;20042;-75
2021/07/29 06:47:49;;;;;;;10.73;3.03;;;15.90;99.90;;;;;;5095744;27;20027;-74
2021/07/29 06:50:15;;;;;;;11.68;3.60;;;15.90;99.90;;;;;;5112206;27;20139;-75
2021/07/29 06:52:41;;;;;;;10.77;2.72;;;16.00;99.90;;;;;;5100852;27;20122;-76
2021/07/29 06:55:08;;;;;;;9.73;3.10;;;16.10;99.90;;;;;;5112022;27;20416;-74
2021/07/29 06:57:34;;;;;;;12.48;3.42;;;16.20;99.90;;;;;;5096034;27;20051;-76
2021/07/29 07:00:00;;;;;;;13.43;3.65;;;16.30;99.80;;;;;;5078183;27;20041;-77
2021/07/29 07:02:26;;;;;;;11.02;3.30;;;16.30;99.80;;;;;;5129322;27;20032;-75
2021/07/29 07:04:52;;;;;;;12.30;3.75;;;16.30;99.80;;;;;;5092130;27;20043;-76
2021/07/29 07:07:18;;;;;;;14.55;3.72;;;16.30;99.50;;;;;;5095253;27;20027;-77
2021/07/29 07:09:45;;;;;;;15.80;4.15;;;16.30;99.90;;;;;;5109516;27;20063;-75
2021/07/29 07:12:11;;;;;;;13.85;4.22;;;16.40;99.90;;;;;;5097651;27;20039;-75
2021/07/29 07:14:37;;;;;;;11.05;3.17;;;16.50;99.60;;;;;;5121335;27;20063;-74
2021/07/29 07:17:05;;;;;;;10.30;3.60;;;16.50;99.00;;;;;;5076995;27;20070;-78
2021/07/29 07:19:31;;;;;;;11.77;3.55;;;16.60;98.90;;;;;;5130500;27;20054;-75
2021/07/29 07:21:57;;;;;;;11.75;3.67;;;16.60;98.90;;;;;;5075230;27;20114;-77
2021/07/29 07:24:23;;;;;;;9.82;3.50;;;16.80;99.10;;;;;;5131927;27;20039;-78
2021/07/29 07:26:49;;;;;;;9.63;3.25;;;16.90;99.10;;;;;;5115108;27;20042;-77
2021/07/29 07:29:15;;;;;;;13.80;2.50;;;17.00;98.70;;;;;;5110652;27;20058;-79
2021/07/29 07:31:41;;;;;;;10.95;2.90;;;17.10;97.90;;;;;;5117284;27;20110;-76
2021/07/29 07:34:07;;;;;;;9.43;2.72;;;17.20;97.50;;;;;;5113561;27;20046;-76
2021/07/29 07:36:33;;;;;;;7.80;2.53;;;17.30;97.50;;;;;;5093107;27;20039;-74
2021/07/29 07:38:59;;;;;;;10.50;2.67;;;17.40;96.70;;;;;;5078405;27;20039;-77
2021/07/29 07:41:24;;;;;;;10.00;2.55;;;17.40;95.20;;;;;;5089854;27;20092;-79
2021/07/29 07:43:50;;;;;;;10.98;3.03;;;17.40;95.40;;;;;;5095034;27;20033;-75
2021/07/29 07:46:16;;;;;;;8.00;2.90;;;17.40;94.90;;;;;;5126767;27;20081;-78
2021/07/29 07:48:42;;;;;;;8.35;1.98;;;17.50;94.70;;;;;;5135027;27;20039;-76
2021/07/29 07:51:09;;;;;;;7.20;2.83;;;17.60;94.40;;;;;;5081703;27;20043;-72
2021/07/29 07:53:35;;;;;;;7.15;2.45;;;17.60;94.10;;;;;;5116036;27;20069;-76
2021/07/29 07:56:05;;;;;;;7.93;2.85;;;17.60;94.20;;;;;;5114176;27;20087;-75
2021/07/29 07:58:31;;;;;;;9.07;2.30;;;17.70;94.60;;;;;;5127772;27;20096;-74
2021/07/29 08:00:57;;;;;;;8.98;2.33;;;17.70;94.50;;;;;;5098709;27;20043;-75
2021/07/29 08:03:23;;;;;;;9.20;2.78;;;17.80;94.00;;;;;;5111166;27;20053;-75
2021/07/29 08:05:49;;;;;;;10.57;3.20;;;17.90;94.10;;;;;;5115284;27;20497;-75
2021/07/29 08:08:15;;;;;;;10.35;3.20;;;18.00;94.20;;;;;;5134225;27;20513;-75
2021/07/29 08:10:42;;;;;;;9.88;3.22;;;18.10;94.20;;;;;;5105713;27;20119;-75
2021/07/29 08:13:11;;;;;;;11.55;3.25;;;18.10;94.50;;;;;;5111250;27;20126;-77
2021/07/29 08:15:37;;;;;;;13.83;3.47;;;18.20;94.40;;;;;;5090512;27;20038;-76
2021/07/29 08:18:03;;;;;;;11.50;3.10;;;18.30;94.30;;;;;;5130539;27;20031;-76
2021/07/29 08:20:29;;;;;;;13.95;3.25;;;18.40;94.00;;;;;;5108136;27;20074;-77
2021/07/29 08:22:56;;;;;;;9.68;2.85;;;18.40;93.80;;;;;;5112357;27;20122;-76
2021/07/29 08:25:23;;;;;;;9.20;2.67;;;18.50;93.60;;;;;;5129025;27;20035;-77
2021/07/29 08:27:50;;;;;;;8.45;3.00;;;18.60;93.80;;;;;;5105617;27;20057;-77
2021/07/29 08:30:17;;;;;;;12.35;2.92;;;18.70;93.10;;;;;;5117762;27;20122;-82
2021/07/29 08:32:43;;;;;;;9.20;3.03;;;18.80;93.30;;;;;;5087342;27;20819;-82
2021/07/29 08:35:10;;;;;;;10.65;2.95;;;18.90;92.40;;;;;;5073488;27;20035;-82
2021/07/29 08:37:36;;;;;;;9.80;2.60;;;19.00;91.80;;;;;;5092201;27;20035;-80
2021/07/29 08:40:03;;;;;;;8.20;3.15;;;18.90;91.30;;;;;;5090937;27;20039;-81
2021/07/29 08:42:31;;;;;;;8.25;2.63;;;18.80;91.80;;;;;;5093227;27;20054;-81
2021/07/29 08:44:59;;;;;;;12.48;2.72;;;18.70;91.70;;;;;;5109612;27;20460;-79
2021/07/29 08:47:28;;;;;;;8.55;2.03;;;18.80;91.00;;;;;;5133552;27;20035;-80
2021/07/29 08:49:55;;;;;;;8.90;2.17;;;18.90;90.10;;;;;;5077599;27;20142;-75
2021/07/29 08:52:24;;;;;;;8.50;2.15;;;19.00;89.00;;;;;;5093633;27;20903;-81
2021/07/29 08:54:53;;;;;;;8.73;2.40;;;19.10;87.60;;;;;;5109530;27;20046;-81
2021/07/29 08:57:30;;;;;;;7.72;2.47;;;19.10;88.90;;;;;;5113586;27;20031;-80
2021/07/29 09:00:00;;;;;;;9.45;2.30;;;19.10;89.20;;;;;;5094117;27;20034;-82
2021/07/29 09:02:27;;;;;;;8.57;2.33;;;19.10;90.70;;;;;;5131321;27;20489;-79
2021/07/29 09:05:17;;;;;;;5.78;2.38;;;19.20;90.70;;;;;;5132360;27;20069;-79
2021/07/29 09:07:45;;;;;;;6.85;2.20;;;19.30;89.20;;;;;;5107961;27;20074;-79
2021/07/29 09:10:22;;;;;;;6.47;2.35;;;19.20;87.40;;;;;;5116874;27;20062;-80
2021/07/29 09:13:12;;;;;;;8.90;2.65;;;19.10;90.20;;;;;;5105617;27;20060;-80
2021/07/29 09:15:40;;;;;;;8.80;2.30;;;19.00;87.40;;;;;;5112066;27;20134;-80
2021/07/29 09:18:06;;;;;;;8.10;2.15;;;18.80;88.90;;;;;;5112358;27;20035;-79
2021/07/29 09:20:33;;;;;;;8.95;2.67;;;18.60;89.60;;;;;;5111158;27;20055;-76
2021/07/29 09:23:12;;;;;;;12.43;2.30;;;18.40;90.50;;;;;;5109410;27;20598;-80
2021/07/29 09:25:41;;;;;;;8.68;2.20;;;18.30;90.60;;;;;;5109470;27;20038;-78
2021/07/29 09:28:07;;;;;;;10.23;2.13;;;18.20;90.60;;;;;;5118010;27;20043;-78
2021/07/29 09:30:34;;;;;;;9.68;2.53;;;18.40;91.40;;;;;;5090929;27;20478;-80
2021/07/29 09:33:04;;;;;;;8.43;2.13;;;18.60;91.30;;;;;;5097251;27;20058;-80
2021/07/29 09:35:46;;;;;;;9.10;3.22;;;18.70;90.40;;;;;;5133678;27;20062;-80
2021/07/29 09:38:24;;;;;;;9.23;2.47;;;18.50;90.60;;;;;;5109276;27;20046;-77
2021/07/29 09:40:53;;;;;;;10.23;2.72;;;18.50;90.50;;;;;;5124604;27;20099;-75
2021/07/29 09:43:22;;;;;;;12.15;2.90;;;18.50;90.40;;;;;;5125808;27;20118;-82
2021/07/29 09:45:56;;;;;;;9.30;2.70;;;18.50;90.50;;;;;;5114380;27;20037;-79
2021/07/29 09:48:23;;;;;;;9.80;2.70;;;18.60;90.60;;;;;;5119265;27;20054;-81
2021/07/29 09:50:50;;;;;;;9.70;2.55;;;18.90;91.10;;;;;;5111627;27;20039;-82
2021/07/29 09:53:16;;;;;;;6.88;2.65;;;19.30;91.50;;;;;;5091354;27;20050;-80
2021/07/29 09:55:42;;;;;;;8.80;2.45;;;19.60;88.60;;;;;;5125396;27;20035;-79
2021/07/29 09:58:09;;;;;;;7.93;2.00;;;19.50;87.60;;;;;;5107844;27;20046;-80
2021/07/29 10:00:36;;;;;;;7.07;2.25;;;19.30;88.60;;;;;;5100750;27;20040;-80
2021/07/29 10:03:07;;;;;;;7.22;2.45;;;19.10;88.00;;;;;;5091159;27;20051;-83
2021/07/29 10:05:50;;;;;;;5.03;2.08;;;18.80;86.70;;;;;;5099918;27;20042;-77
2021/07/29 10:08:36;;;;;;;10.05;1.98;;;18.60;85.10;;;;;;5114886;27;20070;-76
2021/07/29 10:11:07;;;;;;;6.43;1.85;;;18.40;86.60;;;;;;5111385;27;20377;-77
2021/07/29 10:13:38;;;;;;;9.05;2.08;;;18.30;84.90;;;;;;5130741;27;20130;-81
2021/07/29 10:16:06;;;;;;;8.65;1.77;;;18.40;87.50;;;;;;5094046;27;20043;-81
2021/07/29 10:18:50;;;;;;;7.25;2.55;;;18.60;86.30;;;;;;5101579;27;20077;-80
2021/07/29 10:21:26;;;;;;;8.30;3.05;;;18.70;87.30;;;;;;5096314;27;20043;-80
2021/07/29 10:23:54;;;;;;;10.10;2.40;;;18.70;87.20;;;;;;5138994;27;20126;-79
2021/07/29 10:26:21;;;;;;;7.68;2.15;;;18.50;87.40;;;;;;5081193;27;20439;-78
2021/07/29 10:28:51;;;;;;;4.35;1.90;;;18.60;88.90;;;;;;5130736;27;20319;-81
2021/07/29 10:31:19;;;;;;;16.13;2.50;;;19.00;88.20;;;;;;5119390;27;20039;-82
2021/07/29 10:33:47;;;;;;;9.88;2.20;;;19.30;87.20;;;;;;5111179;27;20051;-80
2021/07/29 10:36:45;;;;;;;4.60;1.65;;;19.50;87.10;;;;;;5117124;27;20072;-78
2021/07/29 10:39:13;;;;;;;8.00;2.22;;;19.80;85.30;;;;;;5112700;27;20130;-74
2021/07/29 10:41:42;;;;;;;8.63;1.88;;;19.80;85.10;;;;;;5111973;27;20070;-78
2021/07/29 10:44:31;;;;;;;8.23;2.10;;;19.70;84.30;;;;;;5111802;27;20055;-78
2021/07/29 10:46:57;;;;;;;7.03;2.10;;;19.50;84.70;;;;;;5089068;27;20039;-79
2021/07/29 10:49:42;;;;;;;8.25;2.30;;;19.50;84.80;;;;;;5113291;27;20035;-77
2021/07/29 10:52:08;;;;;;;6.07;1.90;;;19.50;85.40;;;;;;5114095;27;20041;-77
2021/07/29 10:54:40;;;;;;;7.88;2.58;;;19.50;85.40;;;;;;5083970;27;20031;-77
2021/07/29 10:57:09;;;;;;;5.60;2.28;;;19.30;83.40;;;;;;5126657;27;20067;-77
2021/07/29 10:59:35;;;;;;;8.23;2.47;;;19.00;84.10;;;;;;5141134;27;20045;-79
2021/07/29 11:02:07;;;;;;;9.40;2.67;;;18.80;84.00;;;;;;5116052;27;20077;-78
2021/07/29 11:04:53;;;;;;;10.20;2.30;;;18.70;85.20;;;;;;5114395;27;20125;-79
2021/07/29 11:07:19;;;;;;;8.93;2.20;;;18.60;87.10;;;;;;5114926;27;20035;-77
2021/07/29 11:09:50;;;;;;;6.15;2.08;;;18.60;87.40;;;;;;5115848;27;20745;-76
2021/07/29 11:12:17;;;;;;;8.15;2.60;;;18.70;85.90;;;;;;5074709;27;20075;-77
2021/07/29 11:14:43;;;;;;;10.05;2.33;;;18.80;87.80;;;;;;5102991;27;20091;-77
2021/07/29 11:17:10;;;;;;;11.02;2.55;;;19.10;89.10;;;;;;5118452;27;20155;-79
2021/07/29 11:19:46;;;;;;;6.20;2.28;;;19.10;87.10;;;;;;5117421;27;20500;-77
2021/07/29 11:22:12;;;;;;;10.10;2.45;;;19.00;86.90;;;;;;5116781;27;20039;-79
2021/07/29 11:24:39;;;;;;;6.47;2.33;;;18.80;86.90;;;;;;5117878;27;20127;-79
2021/07/29 11:27:07;;;;;;;9.55;2.60;;;18.60;87.50;;;;;;5116647;27;20042;-78
2021/07/29 11:29:33;;;;;;;6.60;2.33;;;18.50;88.40;;;;;;5080635;27;20042;-78
2021/07/29 11:32:00;;;;;;;8.95;3.13;;;18.70;88.90;;;;;;5104202;27;20046;-78
2021/07/29 11:34:29;;;;;;;7.95;2.50;;;18.80;89.40;;;;;;5091001;27;20556;-77
2021/07/29 11:36:56;;;;;;;8.73;2.60;;;18.90;87.20;;;;;;5097148;27;20054;-78
2021/07/29 11:39:24;;;;;;;8.85;2.50;;;18.80;88.10;;;;;;5112174;27;20096;-77
2021/07/29 11:41:56;;;;;;;7.55;2.53;;;19.10;90.10;;;;;;5100456;27;20035;-77
2021/07/29 11:44:41;;;;;;;8.05;2.45;;;19.30;87.00;;;;;;5121322;27;20031;-75
2021/07/29 11:47:08;;;;;;;8.95;2.20;;;19.40;84.10;;;;;;5099260;27;20035;-78
2021/07/29 11:49:48;;;;;;;10.15;2.75;;;19.50;83.80;;;;;;5117438;27;20039;-77
2021/07/29 11:52:15;;;;;;;8.10;2.47;;;19.30;84.80;;;;;;5113622;27;20034;-77
2021/07/29 11:54:42;;;;;;;7.63;2.50;;;19.10;86.90;;;;;;5079933;27;20043;-75
2021/07/29 11:57:09;;;;;;;8.30;2.65;;;18.90;87.80;;;;;;5116092;27;20168;-76
2021/07/29 11:59:40;;;;;;;7.07;2.55;;;18.70;89.50;;;;;;5113226;27;20035;-79
2021/07/29 12:02:07;;;;;;;8.02;2.50;;;18.50;90.50;;;;;;5137414;27;20047;-75
2021/07/29 12:04:43;;;;;;;8.63;2.45;;;18.40;90.50;;;;;;5136432;27;20039;-76
2021/07/29 12:07:11;;;;;;;8.93;3.47;;;18.50;90.90;;;;;;5107841;27;20035;-80
2021/07/29 12:09:43;;;;;;;10.82;3.05;;;18.80;91.90;;;;;;5080510;27;20042;-82
2021/07/29 12:12:11;;;;;;;6.40;2.63;;;19.30;91.80;;;;;;5133513;27;20048;-82
2021/07/29 12:14:38;;;;;;;9.45;2.60;;;19.50;91.20;;;;;;5093778;27;20072;-78
2021/07/29 12:17:21;;;;;;;9.63;2.60;;;19.70;89.80;;;;;;5117587;27;20470;-83
2021/07/29 12:20:05;;;;;;;6.97;2.10;;;19.70;86.20;;;;;;5113788;27;20047;-79
2021/07/29 12:22:34;;;;;;;9.98;2.88;;;19.60;86.50;;;;;;5094318;27;20436;-80
2021/07/29 12:25:04;;;;;;;7.00;2.30;;;19.70;88.20;;;;;;5108291;27;20050;-79
2021/07/29 12:27:46;;;;;;;8.65;2.22;;;19.90;87.10;;;;;;5093154;27;20051;-80
2021/07/29 12:30:27;;;;;;;7.75;2.50;;;20.00;86.60;;;;;;5108059;27;20374;-83
2021/07/29 12:33:11;;;;;;;8.43;2.45;;;20.00;84.30;;;;;;5108436;27;20074;-85
2021/07/29 12:35:39;;;;;;;9.68;2.40;;;20.00;85.60;;;;;;5098642;27;20055;-77
2021/07/29 12:38:05;;;;;;;8.95;2.25;;;20.00;82.50;;;;;;5074666;27;20109;-77
2021/07/29 12:40:32;;;;;;;5.63;2.00;;;20.00;82.70;;;;;;5069935;27;20068;-77
2021/07/29 12:43:19;;;;;;;8.65;2.38;;;20.00;83.80;;;;;;5098839;27;20046;-76
2021/07/29 12:45:58;;;;;;;9.85;2.53;;;20.20;82.30;;;;;;5113949;27;20026;-77
2021/07/29 12:48:26;;;;;;;9.27;2.25;;;20.50;80.10;;;;;;5092226;27;20476;-74
2021/07/29 12:50:53;;;;;;;6.20;1.98;;;20.50;81.70;;;;;;5094424;27;20054;-75